Time;durP1;ratioP1;P1;durP2;ratioP2;P2;SDS_P1;SDS_P2;PMS_P1;PMS_P2;Temp;Humidity;BMP_temperature;BMP_pressure;BME280_temperature;BME280_humidity;BME280_pressure;Samples;Min_cycle;Max_cycle;Signal;HPM_P1;HPM_P2
2023/01/18 00:00:40;;;;;;;11.37;9.10;;;;;;;0.93;100.00;95144.41;5057433;28;20201;-71
2023/01/18 00:03:11;;;;;;;12.33;8.73;;;;;;;0.93;100.00;95143.63;5057265;28;20312;-72
2023/01/18 00:05:40;;;;;;;12.13;8.87;;;;;;;0.88;100.00;95143.50;5057346;28;20193;-71
2023/01/18 00:08:11;;;;;;;11.47;9.73;;;;;;;0.88;100.00;95143.50;5057052;28;20680;-72
2023/01/18 00:10:38;;;;;;;13.27;10.17;;;;;;;0.83;100.00;95149.44;5057122;28;20225;-71
2023/01/18 00:13:05;;;;;;;14.23;9.80;;;;;;;0.93;100.00;95147.03;5056813;28;20232;-72
2023/01/18 00:15:32;;;;;;;13.83;10.90;;;;;;;0.90;100.00;95154.56;5057098;28;20205;-71
2023/01/18 00:17:59;;;;;;;11.90;9.33;;;;;;;0.90;100.00;95149.31;5057051;28;20209;-71
2023/01/18 00:20:27;;;;;;;12.97;10.20;;;;;;;0.76;100.00;95146.13;5056704;28;20215;-71
2023/01/18 00:22:53;;;;;;;14.27;11.57;;;;;;;0.73;100.00;95153.66;5056608;28;20232;-71
2023/01/18 00:25:22;;;;;;;13.63;11.97;;;;;;;0.74;100.00;95155.22;5056942;28;20209;-71
2023/01/18 00:27:51;;;;;;;14.70;11.60;;;;;;;0.78;100.00;95156.38;5057423;28;20209;-71
2023/01/18 00:30:20;;;;;;;14.03;11.60;;;;;;;0.80;100.00;95154.34;5056742;28;20225;-72
2023/01/18 00:32:52;;;;;;;13.07;10.97;;;;;;;0.76;100.00;95155.81;5056692;28;20221;-71
2023/01/18 00:35:20;;;;;;;13.27;11.20;;;;;;;0.73;100.00;95145.81;5057184;28;20193;-71
2023/01/18 00:37:48;;;;;;;13.27;11.00;;;;;;;0.79;100.00;95148.31;5057019;28;20236;-71
2023/01/18 00:40:15;;;;;;;13.67;11.97;;;;;;;0.79;100.00;95158.75;5056388;28;20202;-71
2023/01/18 00:45:26;;;;;;;13.50;10.77;;;;;;;0.86;100.00;95161.25;5056652;28;20211;-71
2023/01/18 00:47:53;;;;;;;13.33;11.47;;;;;;;0.80;100.00;95154.34;5056458;28;20215;-71
2023/01/18 00:50:21;;;;;;;13.27;11.33;;;;;;;0.79;100.00;95163.19;5056372;28;20221;-71
2023/01/18 00:52:48;;;;;;;11.90;10.57;;;;;;;0.85;100.00;95165.69;5056023;28;20780;-71
2023/01/18 00:55:15;;;;;;;12.53;11.23;;;;;;;0.77;100.00;95166.03;5056924;28;20212;-71
2023/01/18 00:57:42;;;;;;;12.20;10.30;;;;;;;0.82;100.00;95160.13;5056582;28;20209;-72
2023/01/18 01:00:11;;;;;;;11.87;10.57;;;;;;;0.77;100.00;95165.25;5056225;28;20205;-71
2023/01/18 01:02:39;;;;;;;11.27;9.93;;;;;;;0.75;100.00;95173.31;5056186;28;20225;-71
2023/01/18 01:07:50;;;;;;;11.27;10.07;;;;;;;0.75;100.00;95162.03;5056235;28;20627;-72
2023/01/18 01:10:17;;;;;;;11.43;10.00;;;;;;;0.78;100.00;95170.25;5054934;28;20226;-71
2023/01/18 01:26:24;;;;;;;13.50;10.93;;;;;;;0.91;100.00;95179.66;5055554;28;20173;-71
2023/01/18 01:28:52;;;;;;;12.27;10.97;;;;;;;0.87;100.00;95181.94;5055479;28;20570;-71
2023/01/18 01:31:20;;;;;;;13.47;11.23;;;;;;;0.91;100.00;95184.91;5055537;28;20229;-71
2023/01/18 01:33:47;;;;;;;13.07;11.17;;;;;;;0.98;100.00;95188.97;5055697;28;20213;-71
2023/01/18 01:36:17;;;;;;;13.67;11.87;;;;;;;0.92;100.00;95189.09;5055234;28;20664;-71
2023/01/18 01:38:43;;;;;;;14.27;11.77;;;;;;;0.98;100.00;95188.97;5055452;28;20201;-71
2023/01/18 01:41:26;;;;;;;14.03;12.53;;;;;;;1.03;100.00;95191.69;5055590;28;20221;-71
2023/01/18 01:43:58;;;;;;;13.73;12.33;;;;;;;1.03;100.00;95196.94;5055382;28;20190;-71
2023/01/18 01:46:29;;;;;;;15.30;12.70;;;;;;;0.98;100.00;95190.81;5055411;28;20580;-71
2023/01/18 01:49:04;;;;;;;14.57;13.07;;;;;;;0.95;100.00;95186.81;5054293;28;20190;-73
2023/01/18 01:51:32;;;;;;;12.07;10.83;;;;;;;0.96;100.00;95187.63;5054861;28;20687;-72
2023/01/18 01:54:02;;;;;;;13.53;12.00;;;;;;;1.04;100.00;95193.28;5055171;28;20299;-72
2023/01/18 01:56:30;;;;;;;12.07;10.83;;;;;;;0.96;100.00;95196.28;5055132;28;20210;-72
2023/01/18 01:59:00;;;;;;;12.07;10.67;;;;;;;0.93;100.00;95201.13;5055099;28;20206;-72
2023/01/18 02:01:28;;;;;;;10.77;9.67;;;;;;;0.90;100.00;95206.84;5053771;28;20716;-71
2023/01/18 02:04:00;;;;;;;10.07;9.07;;;;;;;0.88;100.00;95206.25;5053819;28;20205;-71
2023/01/18 02:06:31;;;;;;;10.93;9.77;;;;;;;0.94;100.00;95216.59;5054926;28;20194;-72
2023/01/18 02:09:02;;;;;;;9.60;8.60;;;;;;;1.00;100.00;95207.06;5053505;28;20591;-72
2023/01/18 02:11:29;;;;;;;9.77;8.80;;;;;;;0.97;100.00;95205.69;5054618;28;20232;-72
2023/01/18 02:14:00;;;;;;;9.90;8.73;;;;;;;0.91;100.00;95205.81;5054817;28;20213;-72
2023/01/18 02:16:57;;;;;;;9.40;8.03;;;;;;;0.89;100.00;95213.88;5054820;28;20193;-72
2023/01/18 02:19:45;;;;;;;10.60;9.23;;;;;;;0.95;100.00;95210.34;5054564;28;20185;-72
2023/01/18 02:22:43;;;;;;;10.10;9.10;;;;;;;0.90;100.00;95219.91;5054371;28;20221;-72
2023/01/18 02:25:28;;;;;;;10.43;9.43;;;;;;;0.89;100.00;95220.94;5054665;28;20239;-72
2023/01/18 02:28:17;;;;;;;11.83;9.70;;;;;;;0.92;100.00;95215.25;5054411;28;20205;-72
2023/01/18 02:30:52;;;;;;;12.67;11.37;;;;;;;0.91;100.00;95222.31;5054577;28;20214;-72
2023/01/18 02:33:46;;;;;;;11.73;10.53;;;;;;;0.91;100.00;95235.38;5053283;28;20189;-72
2023/01/18 02:36:28;;;;;;;11.53;10.43;;;;;;;0.89;100.00;95234.03;5054525;28;20193;-72
2023/01/18 02:39:05;;;;;;;10.97;9.90;;;;;;;0.96;100.00;95230.28;5053079;28;20677;-72
2023/01/18 02:47:10;;;;;;;13.90;11.77;;;;;;;0.84;100.00;95239.09;5054093;28;20661;-72
2023/01/18 02:49:36;;;;;;;13.07;11.43;;;;;;;0.76;100.00;95232.41;5036523;28;20204;-72
2023/01/18 02:52:04;;;;;;;14.27;11.90;;;;;;;0.87;100.00;95246.50;5054017;28;20228;-71
2023/01/18 02:54:35;;;;;;;12.70;10.77;;;;;;;0.83;100.00;95237.53;5054146;28;20205;-72
2023/01/18 02:57:07;;;;;;;13.23;11.50;;;;;;;0.89;100.00;95241.88;5054125;28;20189;-72
2023/01/18 02:59:44;;;;;;;13.13;11.73;;;;;;;0.83;100.00;95245.38;5052923;28;20196;-72
2023/01/18 03:02:20;;;;;;;13.93;12.33;;;;;;;0.81;100.00;95250.03;5053995;28;20247;-72
2023/01/18 03:04:53;;;;;;;16.40;13.33;;;;;;;0.85;100.00;95254.59;5054318;28;20193;-72
2023/01/18 03:07:41;;;;;;;14.33;12.50;;;;;;;0.80;100.00;95248.47;5053917;28;20193;-71
2023/01/18 03:10:11;;;;;;;16.67;12.63;;;;;;;0.81;100.00;95248.22;5053471;28;20209;-71
2023/01/18 03:12:48;;;;;;;17.17;13.63;;;;;;;0.73;100.00;95247.75;5054022;28;20229;-72
2023/01/18 03:15:38;;;;;;;14.07;12.27;;;;;;;0.64;100.00;95252.53;5053262;28;20185;-71
2023/01/18 03:18:29;;;;;;;13.53;12.13;;;;;;;0.76;100.00;95257.78;5054310;28;20201;-72
2023/01/18 03:20:56;;;;;;;12.67;11.37;;;;;;;0.73;100.00;95255.59;5053499;28;20205;-72
2023/01/18 03:23:37;;;;;;;12.13;10.80;;;;;;;0.69;100.00;95251.84;5053657;28;20209;-72
2023/01/18 03:26:15;;;;;;;14.73;11.53;;;;;;;0.82;100.00;95251.63;5053133;28;20204;-72
2023/01/18 03:34:18;;;;;;;13.97;11.53;;;;;;;0.77;100.00;95256.75;5052925;28;20226;-72
2023/01/18 03:36:47;;;;;;;12.80;11.30;;;;;;;0.77;100.00;95254.13;5053558;28;20197;-72
2023/01/18 03:39:32;;;;;;;14.40;11.57;;;;;;;0.69;100.00;95257.06;5053473;28;20243;-72
2023/01/18 03:42:03;;;;;;;14.47;11.80;;;;;;;0.73;100.00;95259.03;5053813;28;20221;-72
2023/01/18 03:44:37;;;;;;;13.20;11.50;;;;;;;0.67;100.00;95264.34;5051977;28;20196;-72
2023/01/18 03:47:05;;;;;;;13.47;12.00;;;;;;;0.71;100.00;95270.72;5053939;28;20193;-72
2023/01/18 03:49:33;;;;;;;15.37;12.27;;;;;;;0.76;100.00;95273.47;5053431;28;20213;-72
2023/01/18 03:52:15;;;;;;;13.40;11.57;;;;;;;0.73;100.00;95269.47;5053150;28;20231;-71
2023/01/18 03:54:59;;;;;;;13.63;11.83;;;;;;;0.85;100.00;95278.13;5053372;28;20194;-72
2023/01/18 03:57:33;;;;;;;14.70;11.97;;;;;;;0.88;100.00;95284.69;5053368;28;20193;-72
2023/01/18 04:00:01;;;;;;;13.60;11.97;;;;;;;0.92;100.00;95278.00;5053268;28;20188;-72
2023/01/18 04:02:28;;;;;;;14.03;11.63;;;;;;;0.87;100.00;95278.69;5053116;28;20221;-71
2023/01/18 04:04:56;;;;;;;12.87;10.87;;;;;;;0.91;100.00;95282.47;5053125;28;20567;-71
2023/01/18 04:07:26;;;;;;;13.40;11.93;;;;;;;0.79;100.00;95284.25;5053148;28;20566;-71
2023/01/18 04:09:52;;;;;;;14.00;12.20;;;;;;;0.64;100.00;95285.69;5053316;28;20201;-71
2023/01/18 04:12:19;;;;;;;16.47;12.73;;;;;;;0.75;100.00;95283.09;5052726;28;20290;-72
2023/01/18 04:14:45;;;;;;;15.23;13.50;;;;;;;0.71;100.00;95291.63;5053893;28;20213;-71
2023/01/18 04:17:12;;;;;;;14.73;12.73;;;;;;;0.83;100.00;95287.19;5053256;28;20210;-71
2023/01/18 04:19:39;;;;;;;16.20;13.27;;;;;;;0.85;100.00;95296.41;5053043;28;20212;-72
2023/01/18 04:22:06;;;;;;;17.80;14.33;;;;;;;0.73;100.00;95300.03;5052923;28;20228;-72
2023/01/18 04:24:32;;;;;;;16.83;14.07;;;;;;;0.87;100.00;95312.69;5053002;28;20227;-71
2023/01/18 04:26:58;;;;;;;13.73;12.30;;;;;;;0.83;100.00;95306.31;5053030;28;20205;-71
2023/01/18 04:29:25;;;;;;;15.83;12.67;;;;;;;0.76;100.00;95313.44;5052987;28;20211;-72
2023/01/18 04:31:51;;;;;;;16.33;13.13;;;;;;;0.64;100.00;95320.50;5052652;28;20229;-71
2023/01/18 04:34:17;;;;;;;15.63;12.80;;;;;;;0.59;100.00;95325.59;5052651;28;20205;-71
2023/01/18 04:36:44;;;;;;;15.80;13.53;;;;;;;0.45;100.00;95315.53;5052663;28;20205;-71
2023/01/18 04:39:14;;;;;;;15.90;12.57;;;;;;;0.53;100.00;95320.47;5052504;28;20296;-72
2023/01/18 04:41:40;;;;;;;15.43;12.87;;;;;;;0.44;100.00;95329.63;5052378;28;20225;-72
2023/01/18 04:44:07;;;;;;;14.77;12.63;;;;;;;0.58;100.00;95329.22;5052784;28;20213;-71
2023/01/18 04:46:33;;;;;;;14.93;12.23;;;;;;;0.57;100.00;95330.22;5056677;28;20209;-71
2023/01/18 04:49:00;;;;;;;14.50;11.80;;;;;;;0.52;100.00;95337.13;5056084;28;20667;-72
2023/01/18 04:51:26;;;;;;;15.50;12.03;;;;;;;0.50;100.00;95336.56;5055889;28;20667;-72
2023/01/18 04:53:53;;;;;;;13.40;11.63;;;;;;;0.65;100.00;95337.75;5056291;28;20442;-71
2023/01/18 04:56:19;;;;;;;12.90;11.50;;;;;;;0.56;100.00;95346.94;5056059;28;20209;-72
2023/01/18 04:58:45;;;;;;;13.33;10.87;;;;;;;0.57;100.00;95355.56;5056182;28;20217;-72
2023/01/18 05:01:12;;;;;;;12.40;10.47;;;;;;;0.41;100.00;95359.63;5055684;28;20715;-72
2023/01/18 05:03:42;;;;;;;13.60;10.93;;;;;;;0.46;100.00;95353.72;5056073;28;20205;-72
2023/01/18 05:06:11;;;;;;;13.03;9.97;;;;;;;0.55;100.00;95362.84;5055862;28;20312;-72
2023/01/18 05:08:39;;;;;;;9.57;8.60;;;;;;;0.56;100.00;95364.44;5055833;28;20213;-72
2023/01/18 05:11:08;;;;;;;11.27;9.57;;;;;;;0.46;100.00;95372.00;5055396;28;20316;-72
2023/01/18 05:13:34;;;;;;;10.63;9.30;;;;;;;0.37;100.00;95381.16;5055481;28;20224;-72
2023/01/18 05:16:02;;;;;;;10.87;8.03;;;;;;;0.36;100.00;95388.19;5055859;28;20205;-71
2023/01/18 05:18:29;;;;;;;9.30;6.80;;;;;;;0.42;100.00;95396.97;5055457;28;20232;-72
2023/01/18 05:20:55;;;;;;;9.73;6.80;;;;;;;0.30;100.00;95393.53;5055210;28;20596;-72
2023/01/18 05:23:23;;;;;;;7.63;6.83;;;;;;;0.33;100.00;95407.72;5056379;28;20209;-72
2023/01/18 05:25:53;;;;;;;7.37;5.93;;;;;;;0.26;100.00;95415.88;5054984;28;20227;-72
2023/01/18 05:28:20;;;;;;;7.17;6.47;;;;;;;0.38;100.00;95416.72;5055066;28;20739;-72
2023/01/18 05:30:48;;;;;;;7.13;5.97;;;;;;;0.35;100.00;95425.03;5055548;28;20236;-72
2023/01/18 05:33:14;;;;;;;7.97;5.83;;;;;;;0.28;100.00;95427.72;5055931;28;20205;-72
2023/01/18 05:35:40;;;;;;;6.57;5.87;;;;;;;0.33;100.00;95439.06;5055466;28;20224;-72
2023/01/18 05:38:07;;;;;;;5.83;4.97;;;;;;;0.45;100.00;95440.97;5055294;28;20441;-72
2023/01/18 05:40:33;;;;;;;6.20;5.63;;;;;;;0.47;100.00;95440.50;5055093;28;20395;-72
2023/01/18 05:43:00;;;;;;;5.90;5.30;;;;;;;0.47;100.00;95444.97;5054829;28;20225;-72
2023/01/18 05:45:26;;;;;;;8.00;6.00;;;;;;;0.38;100.00;95449.66;5054950;28;20210;-73
2023/01/18 05:47:54;;;;;;;5.30;4.80;;;;;;;0.49;100.00;95449.97;5055012;28;20208;-72
2023/01/18 05:50:20;;;;;;;5.70;4.70;;;;;;;0.43;100.00;95456.88;5054866;28;20213;-72
2023/01/18 05:52:47;;;;;;;5.67;5.13;;;;;;;0.38;100.00;95462.72;5054468;28;20236;-72
2023/01/18 05:55:14;;;;;;;7.53;5.90;;;;;;;0.41;100.00;95461.53;5054602;28;20215;-72
2023/01/18 05:57:40;;;;;;;6.87;5.87;;;;;;;0.42;100.00;95470.94;5053830;28;20205;-72
2023/01/18 06:00:08;;;;;;;6.63;5.87;;;;;;;0.32;100.00;95466.22;5054663;28;20292;-73
2023/01/18 06:02:34;;;;;;;6.57;5.93;;;;;;;0.45;100.00;95486.16;5054185;28;20228;-72
2023/01/18 06:05:01;;;;;;;5.90;5.30;;;;;;;0.47;100.00;95493.81;5054435;28;20556;-72
2023/01/18 06:07:27;;;;;;;6.00;5.40;;;;;;;0.57;100.00;95499.31;5054227;28;20209;-73
2023/01/18 06:09:53;;;;;;;6.00;5.40;;;;;;;0.45;100.00;95501.84;5054607;28;20235;-72
2023/01/18 06:12:20;;;;;;;6.83;5.40;;;;;;;0.53;100.00;95513.84;5054100;28;20271;-72
2023/01/18 06:14:46;;;;;;;6.03;5.43;;;;;;;0.48;100.00;95517.09;5054177;28;20296;-72
2023/01/18 06:17:13;;;;;;;6.67;4.77;;;;;;;0.43;100.00;95524.00;5054117;28;20205;-72
2023/01/18 06:19:39;;;;;;;6.00;5.40;;;;;;;0.36;100.00;95523.28;5054049;28;20205;-72
2023/01/18 06:22:05;;;;;;;6.97;5.40;;;;;;;0.41;100.00;95528.66;5054026;28;20311;-72
2023/01/18 06:24:32;;;;;;;11.17;5.87;;;;;;;0.48;100.00;95535.41;5053466;28;20208;-72
2023/01/18 06:26:59;;;;;;;9.67;5.60;;;;;;;0.44;100.00;95541.28;5053609;28;20668;-72
2023/01/18 06:29:25;;;;;;;6.73;5.13;;;;;;;0.51;100.00;95542.81;5053895;28;20209;-72
2023/01/18 06:31:52;;;;;;;7.50;6.03;;;;;;;0.50;100.00;95545.66;5053895;28;20233;-72
2023/01/18 06:34:18;;;;;;;6.60;5.93;;;;;;;0.52;100.00;95551.44;5053698;28;20206;-73
2023/01/18 06:36:45;;;;;;;8.33;6.10;;;;;;;0.47;100.00;95552.09;5053589;28;20236;-72
2023/01/18 06:39:12;;;;;;;7.27;6.17;;;;;;;0.49;100.00;95552.66;5053638;28;20205;-72
2023/01/18 06:41:38;;;;;;;7.17;5.53;;;;;;;0.49;100.00;95551.88;5053126;28;20222;-72
2023/01/18 06:44:05;;;;;;;8.80;6.20;;;;;;;0.51;100.00;95557.69;5053593;28;20573;-72
2023/01/18 06:46:31;;;;;;;6.40;5.80;;;;;;;0.47;100.00;95563.34;5053025;28;20220;-71
2023/01/18 06:48:58;;;;;;;6.57;5.77;;;;;;;0.44;100.00;95570.03;5053633;28;20217;-72
2023/01/18 06:51:24;;;;;;;8.00;5.87;;;;;;;0.44;100.00;95583.09;5053436;28;20244;-72
2023/01/18 06:53:50;;;;;;;9.27;6.23;;;;;;;0.41;100.00;95584.34;5053517;28;20205;-72
2023/01/18 06:56:17;;;;;;;8.63;6.47;;;;;;;0.47;100.00;95587.88;5053621;28;20205;-72
2023/01/18 06:58:43;;;;;;;11.33;7.83;;;;;;;0.44;100.00;95583.09;5053984;28;20201;-72
2023/01/18 07:01:10;;;;;;;10.07;8.80;;;;;;;0.56;100.00;95592.63;5053179;28;20726;-72
2023/01/18 07:03:37;;;;;;;10.37;8.47;;;;;;;0.51;100.00;95602.13;5053511;28;20205;-72
2023/01/18 07:06:05;;;;;;;10.20;8.87;;;;;;;0.49;100.00;95598.94;5053651;28;20235;-70
2023/01/18 07:08:31;;;;;;;10.37;8.50;;;;;;;0.47;100.00;95598.34;5052103;28;20240;-70
2023/01/18 07:10:59;;;;;;;9.47;8.50;;;;;;;0.32;100.00;95609.91;5052683;28;20212;-72
2023/01/18 07:13:25;;;;;;;11.20;9.20;;;;;;;0.40;100.00;95610.69;5052910;28;20270;-71
2023/01/18 07:15:56;;;;;;;10.43;9.37;;;;;;;0.33;100.00;95613.34;5053871;28;20296;-71
2023/01/18 07:18:22;;;;;;;11.27;9.03;;;;;;;0.28;100.00;95616.59;5052896;28;20670;-71
2023/01/18 07:20:59;;;;;;;11.07;9.67;;;;;;;0.40;100.00;95637.59;5053221;28;20258;-71
2023/01/18 07:23:27;;;;;;;12.73;9.60;;;;;;;0.39;100.00;95636.00;5053082;28;20207;-71
2023/01/18 07:26:01;;;;;;;10.80;9.40;;;;;;;0.32;100.00;95643.88;5052732;28;20201;-70
2023/01/18 07:28:29;;;;;;;10.43;8.83;;;;;;;0.34;100.00;95638.44;5051539;28;20204;-71
2023/01/18 07:30:55;;;;;;;13.13;9.97;;;;;;;0.26;100.00;95649.16;5050585;28;20212;-70
2023/01/18 07:33:22;;;;;;;12.80;9.67;;;;;;;0.34;100.00;95648.91;5051271;28;20279;-71
2023/01/18 07:35:48;;;;;;;11.43;9.80;;;;;;;0.38;100.00;95663.94;5050906;28;20213;-71
2023/01/18 07:38:14;;;;;;;9.83;8.73;;;;;;;0.31;100.00;95666.81;5051060;28;20201;-71
2023/01/18 07:40:41;;;;;;;12.47;9.27;;;;;;;0.34;100.00;95672.41;5050975;28;20217;-70
2023/01/18 07:43:07;;;;;;;9.87;8.87;;;;;;;0.44;100.00;95677.19;5051350;28;20265;-71
2023/01/18 07:45:33;;;;;;;9.90;8.20;;;;;;;0.49;100.00;95679.94;5052070;28;20300;-70
2023/01/18 07:48:00;;;;;;;9.73;7.70;;;;;;;0.43;100.00;95678.16;5052284;28;20573;-71
2023/01/18 07:50:26;;;;;;;8.30;7.43;;;;;;;0.43;100.00;95692.03;5052841;28;20209;-69
2023/01/18 07:52:53;;;;;;;9.07;8.10;;;;;;;0.35;100.00;95689.69;5052687;28;20382;-69
2023/01/18 07:55:20;;;;;;;9.43;7.87;;;;;;;0.25;100.00;95699.81;5052728;28;20295;-70
2023/01/18 07:57:46;;;;;;;9.27;8.23;;;;;;;0.33;100.00;95695.13;5052559;28;20215;-70
2023/01/18 08:00:16;;;;;;;9.67;8.37;;;;;;;0.30;100.00;95704.44;5052961;28;20205;-71
2023/01/18 08:02:42;;;;;;;9.07;8.17;;;;;;;0.10;100.00;95707.16;5052178;28;20700;-70
2023/01/18 08:05:09;;;;;;;10.70;8.93;;;;;;;0.26;100.00;95711.88;5052672;28;20227;-70
2023/01/18 08:07:36;;;;;;;9.90;8.83;;;;;;;0.23;100.00;95715.69;5052722;28;20331;-71
2023/01/18 08:10:03;;;;;;;11.37;10.17;;;;;;;0.37;100.00;95726.88;5052581;28;20255;-71
2023/01/18 08:12:29;;;;;;;10.43;9.37;;;;;;;0.38;100.00;95725.03;5051769;28;20696;-71
2023/01/18 08:14:55;;;;;;;10.47;9.40;;;;;;;0.34;100.00;95729.91;5051993;28;20632;-72
2023/01/18 08:17:22;;;;;;;9.73;8.63;;;;;;;0.32;100.00;95731.13;5052380;28;20205;-71
2023/01/18 08:19:48;;;;;;;9.93;8.93;;;;;;;0.26;100.00;95737.22;5053324;28;20209;-71
2023/01/18 08:22:14;;;;;;;10.30;8.63;;;;;;;0.24;100.00;95746.03;5056117;28;20221;-72
2023/01/18 08:24:41;;;;;;;10.53;9.07;;;;;;;0.26;100.00;95752.88;5056280;28;20209;-71
2023/01/18 08:27:07;;;;;;;11.43;8.80;;;;;;;0.29;100.00;95761.09;5056317;28;20216;-71
2023/01/18 08:29:33;;;;;;;9.90;8.90;;;;;;;0.42;100.00;95762.81;5056409;28;20208;-72
2023/01/18 08:32:01;;;;;;;8.47;7.00;;;;;;;0.22;100.00;95762.16;5055935;28;20229;-71
2023/01/18 08:34:27;;;;;;;8.60;7.70;;;;;;;0.19;100.00;95772.00;5056263;28;20208;-71
2023/01/18 08:36:53;;;;;;;9.33;8.10;;;;;;;0.18;100.00;95783.47;5056167;28;20209;-72
2023/01/18 08:39:20;;;;;;;9.10;7.77;;;;;;;0.23;100.00;95785.47;5055979;28;20212;-72
2023/01/18 08:41:48;;;;;;;11.50;8.20;;;;;;;0.30;100.00;95794.03;5056106;28;20576;-71
2023/01/18 08:44:14;;;;;;;9.17;8.00;;;;;;;0.28;100.00;95798.69;5055759;28;20205;-70
2023/01/18 08:46:41;;;;;;;10.27;8.87;;;;;;;0.40;100.00;95804.03;5056173;28;20212;-71
2023/01/18 08:49:07;;;;;;;8.83;7.93;;;;;;;0.49;100.00;95810.63;5055876;28;20446;-71
2023/01/18 08:51:33;;;;;;;8.97;8.07;;;;;;;0.29;100.00;95821.19;5055914;28;20233;-71
2023/01/18 08:54:00;;;;;;;7.60;6.80;;;;;;;0.35;100.00;95822.16;5055690;28;20686;-71
2023/01/18 08:56:27;;;;;;;8.23;7.43;;;;;;;0.40;100.00;95827.56;5055821;28;20292;-70
2023/01/18 08:58:53;;;;;;;7.70;6.90;;;;;;;0.35;100.00;95830.00;5056347;28;20212;-71
2023/01/18 09:01:21;;;;;;;7.83;6.53;;;;;;;0.32;100.00;95827.81;5056198;28;20229;-71
2023/01/18 09:03:49;;;;;;;7.40;6.67;;;;;;;0.38;100.00;95837.41;5055772;28;20731;-71
2023/01/18 09:06:16;;;;;;;7.80;7.00;;;;;;;0.49;100.00;95839.38;5055638;28;20205;-71
2023/01/18 09:08:43;;;;;;;8.00;7.20;;;;;;;0.56;100.00;95848.78;5055765;28;20213;-71
2023/01/18 09:11:10;;;;;;;8.37;7.10;;;;;;;0.38;100.00;95854.69;5055751;28;20225;-72
2023/01/18 09:13:37;;;;;;;7.90;7.10;;;;;;;0.45;100.00;95861.72;5055252;28;20237;-70
2023/01/18 09:16:06;;;;;;;8.90;8.00;;;;;;;0.37;100.00;95862.75;5055280;28;20209;-71
2023/01/18 09:18:33;;;;;;;8.17;7.37;;;;;;;0.47;100.00;95865.72;5055970;28;20205;-71
2023/01/18 09:21:08;;;;;;;6.97;6.37;;;;;;;0.47;100.00;95876.16;5055685;28;20209;-70
2023/01/18 09:23:36;;;;;;;7.93;5.90;;;;;;;0.27;100.00;95877.28;5055542;28;20196;-70
2023/01/18 09:26:06;;;;;;;7.50;6.70;;;;;;;0.31;100.00;95883.69;5055589;28;20231;-70
2023/01/18 09:28:33;;;;;;;7.37;6.67;;;;;;;0.22;100.00;95890.16;5054216;28;20207;-70
2023/01/18 09:31:01;;;;;;;7.80;7.00;;;;;;;0.38;100.00;95896.50;5054490;28;20692;-69
2023/01/18 09:33:28;;;;;;;11.90;7.70;;;;;;;0.55;100.00;95904.69;5054510;28;20248;-70
2023/01/18 09:35:55;;;;;;;7.67;6.97;;;;;;;0.33;100.00;95913.81;5055312;28;20205;-71
2023/01/18 09:38:22;;;;;;;8.17;7.30;;;;;;;0.39;100.00;95918.22;5054923;28;20687;-69
2023/01/18 09:40:52;;;;;;;7.90;6.57;;;;;;;0.31;100.00;95918.44;5055268;28;20216;-71
2023/01/18 09:43:37;;;;;;;8.30;6.73;;;;;;;0.37;100.00;95922.03;5055132;28;20190;-71
2023/01/18 09:46:04;;;;;;;11.80;7.50;;;;;;;0.33;100.00;95932.91;5055172;28;20190;-71
2023/01/18 09:48:36;;;;;;;9.53;7.43;;;;;;;0.41;100.00;95936.31;5054573;28;20220;-71
2023/01/18 09:51:09;;;;;;;7.37;6.67;;;;;;;0.33;100.00;95935.50;5054894;28;20189;-70
2023/01/18 09:54:04;;;;;;;10.27;7.27;;;;;;;0.38;100.00;95939.31;5054642;28;20215;-70
2023/01/18 09:56:46;;;;;;;9.30;7.03;;;;;;;0.49;100.00;95949.94;5054552;28;20190;-70
2023/01/18 09:59:27;;;;;;;7.67;6.23;;;;;;;0.59;100.00;95946.88;5054105;28;20189;-70
2023/01/18 10:01:53;;;;;;;6.60;5.97;;;;;;;0.30;100.00;95945.59;5054612;28;20225;-71
2023/01/18 10:04:31;;;;;;;7.53;6.77;;;;;;;0.59;100.00;95954.72;5054620;28;20217;-70
2023/01/18 10:07:05;;;;;;;7.40;6.70;;;;;;;0.78;100.00;95951.22;5054434;28;20194;-71
2023/01/18 10:09:49;;;;;;;6.53;5.93;;;;;;;0.75;100.00;95964.69;5054630;28;20185;-70
2023/01/18 10:12:31;;;;;;;6.67;6.03;;;;;;;0.84;100.00;95966.06;5053112;28;20733;-71
2023/01/18 10:15:04;;;;;;;6.57;5.87;;;;;;;0.82;100.00;95962.84;5054640;28;20190;-71
2023/01/18 10:17:37;;;;;;;6.00;5.40;;;;;;;0.92;100.00;95960.59;5054504;28;20191;-71
2023/01/18 10:20:28;;;;;;;7.13;5.77;;;;;;;0.94;100.00;95967.22;5054304;28;20193;-71
2023/01/18 10:23:04;;;;;;;7.47;6.03;;;;;;;0.98;100.00;95978.84;5054256;28;20228;-71
2023/01/18 10:25:35;;;;;;;6.57;5.93;;;;;;;0.86;100.00;95982.34;5054346;28;20195;-71
2023/01/18 10:28:16;;;;;;;8.97;6.60;;;;;;;1.01;100.00;95982.88;5054242;28;20212;-71
2023/01/18 10:30:55;;;;;;;6.70;5.87;;;;;;;0.93;100.00;95980.50;5053269;28;20190;-71
2023/01/18 10:33:28;;;;;;;8.23;6.03;;;;;;;0.98;100.00;95978.06;5054045;28;20259;-72
2023/01/18 10:36:19;;;;;;;6.97;6.23;;;;;;;0.82;100.00;95983.78;5054206;28;20237;-72
2023/01/18 10:38:47;;;;;;;7.70;6.17;;;;;;;0.72;100.00;95991.28;5054077;28;20190;-70
2023/01/18 10:41:24;;;;;;;7.70;6.33;;;;;;;0.82;100.00;95995.06;5052878;28;20225;-71
2023/01/18 10:43:52;;;;;;;7.60;6.80;;;;;;;0.83;100.00;95998.44;5053467;28;20193;-71
2023/01/18 10:46:19;;;;;;;6.63;5.97;;;;;;;0.89;100.00;95997.63;5053957;28;20213;-70
2023/01/18 10:49:03;;;;;;;7.87;5.93;;;;;;;0.67;100.00;96004.94;5053746;28;20660;-70
2023/01/18 10:51:33;;;;;;;8.97;6.63;;;;;;;0.70;100.00;96003.72;5053564;28;20677;-71
2023/01/18 10:54:22;;;;;;;8.57;6.23;;;;;;;0.77;100.00;96009.75;5053702;28;20213;-71
2023/01/18 10:56:49;;;;;;;6.77;6.07;;;;;;;0.76;100.00;96013.38;5053348;28;20216;-72
2023/01/18 10:59:28;;;;;;;8.63;6.30;;;;;;;1.24;100.00;96017.16;5053141;28;20209;-71
2023/01/18 11:01:57;;;;;;;7.53;6.23;;;;;;;1.04;100.00;96019.88;5053783;28;20263;-71
2023/01/18 11:04:32;;;;;;;9.53;6.10;;;;;;;1.14;100.00;96019.44;5053364;28;20201;-71
2023/01/18 11:07:01;;;;;;;10.33;5.77;;;;;;;1.25;100.00;96027.41;5053339;28;20299;-71
2023/01/18 11:09:50;;;;;;;10.47;6.60;;;;;;;1.35;100.00;96029.59;5053403;28;20216;-70
2023/01/18 11:12:37;;;;;;;11.47;6.47;;;;;;;1.46;100.00;96034.94;5052993;28;20229;-71
2023/01/18 11:15:13;;;;;;;9.37;6.37;;;;;;;1.08;100.00;96036.75;5053537;28;20552;-70
2023/01/18 11:17:59;;;;;;;7.43;5.93;;;;;;;1.17;100.00;96024.25;5053617;28;20208;-71
2023/01/18 11:20:46;;;;;;;8.17;6.07;;;;;;;1.19;100.00;96038.72;5053301;28;20297;-71
2023/01/18 11:23:18;;;;;;;5.93;5.27;;;;;;;1.51;100.00;96036.91;5053497;28;20205;-71
2023/01/18 11:26:03;;;;;;;7.73;5.77;;;;;;;1.29;100.00;96046.91;5053161;28;20209;-71
2023/01/18 11:28:59;;;;;;;7.57;5.20;;;;;;;1.22;100.00;96047.97;5052585;28;20737;-71
2023/01/18 11:31:30;;;;;;;7.20;5.30;;;;;;;1.20;100.00;96053.41;5053281;28;20225;-71
2023/01/18 11:34:03;;;;;;;9.07;5.50;;;;;;;1.20;100.00;96053.41;5053098;28;20213;-71
2023/01/18 11:36:48;;;;;;;9.60;6.03;;;;;;;1.50;100.00;96053.63;5052501;28;20284;-71
2023/01/18 11:39:35;;;;;;;6.60;4.93;;;;;;;1.16;100.00;96059.25;5052953;28;20224;-71
2023/01/18 11:42:29;;;;;;;6.63;5.63;;;;;;;1.07;100.00;96060.53;5052918;28;20225;-71
2023/01/18 11:45:20;;;;;;;8.43;5.40;;;;;;;1.16;100.00;96059.25;5052889;28;20205;-71
2023/01/18 11:48:02;;;;;;;5.03;4.53;;;;;;;0.99;100.00;96069.41;5052934;28;20190;-71
2023/01/18 11:50:41;;;;;;;10.97;4.97;;;;;;;1.02;100.00;96070.78;5053090;28;20190;-71
2023/01/18 11:53:16;;;;;;;6.03;4.67;;;;;;;1.03;100.00;96065.34;5052985;28;20225;-71
2023/01/18 11:55:54;;;;;;;7.20;4.00;;;;;;;0.98;100.00;96075.66;5055162;28;20610;-72
2023/01/18 11:58:27;;;;;;;4.60;3.73;;;;;;;1.02;100.00;96070.78;5056678;28;20612;-73
2023/01/18 12:01:23;;;;;;;5.53;4.60;;;;;;;1.02;100.00;96069.00;5056993;28;20211;-72
2023/01/18 12:04:23;;;;;;;6.47;4.53;;;;;;;1.15;100.00;96089.88;5057446;28;20189;-72
2023/01/18 12:07:16;;;;;;;5.40;4.57;;;;;;;1.27;100.00;96087.41;5056700;28;20259;-72
2023/01/18 12:09:56;;;;;;;10.93;4.70;;;;;;;1.21;100.00;96088.25;5056676;28;20189;-72
2023/01/18 12:12:51;;;;;;;6.63;4.60;;;;;;;1.22;100.00;96100.31;5056319;28;20243;-73
2023/01/18 12:15:40;;;;;;;6.90;4.50;;;;;;;1.15;100.00;96116.03;5056643;28;20539;-72